Time;durP1;ratioP1;P1;durP2;ratioP2;P2;SDS_P1;SDS_P2;PMS_P1;PMS_P2;Temp;Humidity;BMP_temperature;BMP_pressure;BME280_temperature;BME280_humidity;BME280_pressure;Samples;Min_cycle;Max_cycle;Signal;HPM_P1;HPM_P2
2022/05/28 00:01:21;;;;;;;0.00;0.00;;;;;;;;;;4179745;28;20099;-40
2022/05/28 00:03:23;;;;;;;0.00;0.00;;;;;;;;;;4179515;28;20065;-39
2022/05/28 00:05:24;;;;;;;0.10;0.00;;;;;;;;;;4179521;28;20443;-41
2022/05/28 00:07:25;;;;;;;0.00;0.00;;;;;;;;;;4179444;28;20045;-37
2022/05/28 00:09:26;;;;;;;0.20;0.10;;;;;;;;;;4179646;28;20055;-41
2022/05/28 00:11:28;;;;;;;0.10;0.00;;;;;;;;;;4179832;28;20446;-40
2022/05/28 00:13:29;;;;;;;0.00;0.00;;;;;;;;;;4179462;28;20037;-41
2022/05/28 00:15:31;;;;;;;0.00;0.00;;;;;;;;;;4179033;28;20045;-40
2022/05/28 00:17:33;;;;;;;0.00;0.00;;;;;;;;;;4179523;28;20063;-36
2022/05/28 00:19:34;;;;;;;0.10;0.10;;;;;;;;;;4179357;28;20447;-40
2022/05/28 00:21:35;;;;;;;0.00;0.00;;;;;;;;;;4179818;28;20045;-39
2022/05/28 00:23:37;;;;;;;0.00;0.00;;;;;;;;;;4179643;28;20049;-36
2022/05/28 00:25:40;;;;;;;0.10;0.00;;;;;;;;;;4179398;28;20180;-37
2022/05/28 00:27:41;;;;;;;0.98;0.10;;;;;;;;;;4179497;28;20049;-38
2022/05/28 00:29:42;;;;;;;0.00;0.00;;;;;;;;;;4178930;28;20488;-39
2022/05/28 00:31:43;;;;;;;0.00;0.00;;;;;;;;;;4179393;28;20432;-39
2022/05/28 00:33:44;;;;;;;0.00;0.00;;;;;;;;;;4178184;28;20056;-41
2022/05/28 00:35:45;;;;;;;0.00;0.00;;;;;;;;;;4179412;28;20443;-39
2022/05/28 00:37:47;;;;;;;0.13;0.13;;;;;;;;;;4179163;28;20056;-41
2022/05/28 00:39:48;;;;;;;0.00;0.00;;;;;;;;;;4177895;28;20509;-38
2022/05/28 00:41:49;;;;;;;0.00;0.00;;;;;;;;;;4179245;28;20183;-41
2022/05/28 00:43:50;;;;;;;0.00;0.00;;;;;;;;;;4178890;28;20049;-41
2022/05/28 00:45:54;;;;;;;0.00;0.00;;;;;;;;;;4179444;28;20100;-38
2022/05/28 00:47:56;;;;;;;0.00;0.00;;;;;;;;;;4179736;28;20044;-37
2022/05/28 00:49:58;;;;;;;0.00;0.00;;;;;;;;;;4179118;28;20056;-38
2022/05/28 00:52:00;;;;;;;0.10;0.00;;;;;;;;;;4179370;28;20473;-40
2022/05/28 00:54:04;;;;;;;0.00;0.00;;;;;;;;;;4179007;28;20095;-41
2022/05/28 00:56:05;;;;;;;0.00;0.00;;;;;;;;;;4178047;28;20041;-34
2022/05/28 00:58:08;;;;;;;0.20;0.10;;;;;;;;;;4179087;28;20091;-41
2022/05/28 01:00:11;;;;;;;0.08;0.08;;;;;;;;;;4178917;28;20041;-39
2022/05/28 01:02:15;;;;;;;0.00;0.00;;;;;;;;;;4179241;28;20766;-39
2022/05/28 01:04:23;;;;;;;0.00;0.00;;;;;;;;;;4179004;28;20127;-38
2022/05/28 01:06:28;;;;;;;0.00;0.00;;;;;;;;;;4181470;28;20045;-36
2022/05/28 01:08:48;;;;;;;0.00;0.00;;;;;;;;;;4182375;28;20049;-37
2022/05/28 01:10:59;;;;;;;0.00;0.00;;;;;;;;;;4182296;28;20045;-40
2022/05/28 01:13:30;;;;;;;0.03;0.00;;;;;;;;;;4182248;28;20049;-40
2022/05/28 01:15:33;;;;;;;0.00;0.00;;;;;;;;;;4163085;28;20049;-40
2022/05/28 01:17:40;;;;;;;0.00;0.00;;;;;;;;;;4181813;28;20057;-38
2022/05/28 01:19:58;;;;;;;0.00;0.00;;;;;;;;;;4182271;28;20106;-37
2022/05/28 01:22:18;;;;;;;0.00;0.00;;;;;;;;;;4182166;28;20430;-39
2022/05/28 01:24:25;;;;;;;0.00;0.00;;;;;;;;;;4181929;28;20049;-38
2022/05/28 01:26:32;;;;;;;0.00;0.00;;;;;;;;;;4182011;28;20045;-39
2022/05/28 01:28:41;;;;;;;0.00;0.00;;;;;;;;;;4180682;28;20083;-38
2022/05/28 01:30:44;;;;;;;0.10;0.10;;;;;;;;;;4181774;28;20352;-38
2022/05/28 01:32:48;;;;;;;0.00;0.00;;;;;;;;;;4182260;28;20094;-37
2022/05/28 01:34:50;;;;;;;0.00;0.00;;;;;;;;;;4181686;28;20488;-39
2022/05/28 01:36:52;;;;;;;0.10;0.10;;;;;;;;;;4182045;28;20053;-40
2022/05/28 01:38:55;;;;;;;0.13;0.00;;;;;;;;;;4181867;28;20451;-40
2022/05/28 01:40:56;;;;;;;0.10;0.00;;;;;;;;;;4182100;28;20481;-40
2022/05/28 01:43:01;;;;;;;0.10;0.00;;;;;;;;;;4181861;28;20056;-39
2022/05/28 01:45:04;;;;;;;0.00;0.00;;;;;;;;;;4181260;28;20071;-37
2022/05/28 01:47:04;;;;;;;0.00;0.00;;;;;;;;;;4181861;28;20095;-40
2022/05/28 01:49:08;;;;;;;0.15;0.15;;;;;;;;;;4181387;28;20045;-41
2022/05/28 01:51:10;;;;;;;0.00;0.00;;;;;;;;;;4181766;28;20128;-36
2022/05/28 01:54:06;;;;;;;0.00;0.00;;;;;;;;;;4181752;28;20044;-41
2022/05/28 01:55:38;;;;;;;0.05;0.00;;;;;;;;;;4181294;28;20492;-40
2022/05/28 01:57:39;;;;;;;0.00;0.00;;;;;;;;;;4181509;28;20045;-37
2022/05/28 01:59:41;;;;;;;0.00;0.00;;;;;;;;;;4180872;28;20071;-41
2022/05/28 02:01:42;;;;;;;0.00;0.00;;;;;;;;;;4181397;28;20049;-40
2022/05/28 02:03:45;;;;;;;0.00;0.00;;;;;;;;;;4181069;28;20053;-39
2022/05/28 02:05:46;;;;;;;0.10;0.00;;;;;;;;;;4181619;28;20052;-40
2022/05/28 02:07:47;;;;;;;0.00;0.00;;;;;;;;;;4181224;28;20444;-36
2022/05/28 02:09:56;;;;;;;0.00;0.00;;;;;;;;;;4181533;28;20124;-41
2022/05/28 02:12:00;;;;;;;0.00;0.00;;;;;;;;;;4181612;28;20102;-41
2022/05/28 02:14:09;;;;;;;0.00;0.00;;;;;;;;;;4180834;28;20053;-36
2022/05/28 02:16:14;;;;;;;0.00;0.00;;;;;;;;;;4181290;28;20045;-39
2022/05/28 02:18:19;;;;;;;0.00;0.00;;;;;;;;;;4179246;28;20114;-39
2022/05/28 02:20:20;;;;;;;0.00;0.00;;;;;;;;;;4181014;28;20052;-37
2022/05/28 02:22:33;;;;;;;0.00;0.00;;;;;;;;;;4181063;28;20114;-41
2022/05/28 02:24:37;;;;;;;0.00;0.00;;;;;;;;;;4181192;28;20439;-38
2022/05/28 02:26:43;;;;;;;0.00;0.00;;;;;;;;;;4181012;28;20485;-38
2022/05/28 02:28:45;;;;;;;0.00;0.00;;;;;;;;;;4180872;28;20050;-38
2022/05/28 02:30:47;;;;;;;0.00;0.00;;;;;;;;;;4181221;28;20044;-41
2022/05/28 02:32:48;;;;;;;0.00;0.00;;;;;;;;;;4180560;28;20049;-40
2022/05/28 02:34:50;;;;;;;0.00;0.00;;;;;;;;;;4181109;28;20045;-39
2022/05/28 02:36:53;;;;;;;0.00;0.00;;;;;;;;;;4180721;28;20064;-41
2022/05/28 02:38:54;;;;;;;0.10;0.10;;;;;;;;;;4180975;28;20055;-40
2022/05/28 02:40:55;;;;;;;0.03;0.00;;;;;;;;;;4180806;28;20103;-38
2022/05/28 02:42:56;;;;;;;0.15;0.00;;;;;;;;;;4181005;28;20049;-39
2022/05/28 02:44:56;;;;;;;0.00;0.00;;;;;;;;;;4180532;28;20113;-40
2022/05/28 02:46:57;;;;;;;0.08;0.00;;;;;;;;;;4180918;28;20502;-39
2022/05/28 02:48:58;;;;;;;0.00;0.00;;;;;;;;;;4180738;28;20485;-40
2022/05/28 02:51:08;;;;;;;0.08;0.00;;;;;;;;;;4180658;28;20087;-41
2022/05/28 02:53:11;;;;;;;0.00;0.00;;;;;;;;;;4181099;28;20041;-40
2022/05/28 02:55:12;;;;;;;0.10;0.10;;;;;;;;;;4180564;28;20061;-35
2022/05/28 02:57:13;;;;;;;0.20;0.10;;;;;;;;;;4180905;28;20064;-41
2022/05/28 02:59:15;;;;;;;0.00;0.00;;;;;;;;;;4180351;28;20476;-41
2022/05/28 03:01:18;;;;;;;0.00;0.00;;;;;;;;;;4180399;28;20079;-37
2022/05/28 03:03:19;;;;;;;0.00;0.00;;;;;;;;;;4178669;28;20060;-40
2022/05/28 03:05:21;;;;;;;0.20;0.00;;;;;;;;;;4180475;28;20048;-38
2022/05/28 03:07:21;;;;;;;0.00;0.00;;;;;;;;;;4180243;28;20504;-41
2022/05/28 03:09:23;;;;;;;0.00;0.00;;;;;;;;;;4195863;28;20082;-41
2022/05/28 03:11:24;;;;;;;0.00;0.00;;;;;;;;;;4180176;28;20110;-41
2022/05/28 03:13:25;;;;;;;0.00;0.00;;;;;;;;;;4180359;28;20094;-41
2022/05/28 03:15:25;;;;;;;0.10;0.10;;;;;;;;;;4179631;28;20385;-41
2022/05/28 03:17:26;;;;;;;0.00;0.00;;;;;;;;;;4180198;28;20092;-40
2022/05/28 03:19:27;;;;;;;0.00;0.00;;;;;;;;;;4180009;28;20048;-39
2022/05/28 03:21:28;;;;;;;0.00;0.00;;;;;;;;;;4180129;28;20049;-39
2022/05/28 03:23:29;;;;;;;0.00;0.00;;;;;;;;;;4180103;28;20075;-41
2022/05/28 03:25:30;;;;;;;0.00;0.00;;;;;;;;;;4179933;28;20098;-41
2022/05/28 03:27:31;;;;;;;0.00;0.00;;;;;;;;;;4180014;28;20092;-39
2022/05/28 03:29:32;;;;;;;0.00;0.00;;;;;;;;;;4178958;28;20140;-41
2022/05/28 03:31:32;;;;;;;0.05;0.00;;;;;;;;;;4178701;28;20550;-38
2022/05/28 03:33:34;;;;;;;0.10;0.00;;;;;;;;;;4180167;28;20045;-39
2022/05/28 03:35:37;;;;;;;0.00;0.00;;;;;;;;;;4179969;28;20056;-41
2022/05/28 03:37:38;;;;;;;0.00;0.00;;;;;;;;;;4180001;28;20056;-41
2022/05/28 03:39:39;;;;;;;0.00;0.00;;;;;;;;;;4179927;28;20102;-41
2022/05/28 03:41:40;;;;;;;0.15;0.05;;;;;;;;;;4180146;28;20431;-39
2022/05/28 03:43:41;;;;;;;0.10;0.10;;;;;;;;;;4179560;28;20095;-41
2022/05/28 03:45:43;;;;;;;0.00;0.00;;;;;;;;;;4179750;28;20068;-41
2022/05/28 03:47:44;;;;;;;0.03;0.00;;;;;;;;;;4179797;28;20120;-41
2022/05/28 03:49:44;;;;;;;0.00;0.00;;;;;;;;;;4179641;28;20055;-37
2022/05/28 03:51:46;;;;;;;0.15;0.10;;;;;;;;;;4179668;28;20396;-38
2022/05/28 03:53:47;;;;;;;0.00;0.00;;;;;;;;;;4179598;28;20120;-39
2022/05/28 03:55:48;;;;;;;0.00;0.00;;;;;;;;;;4179716;28;20075;-40
2022/05/28 03:57:49;;;;;;;0.10;0.00;;;;;;;;;;4178479;28;20455;-37
2022/05/28 03:59:50;;;;;;;0.00;0.00;;;;;;;;;;4179529;28;20052;-40
2022/05/28 04:01:53;;;;;;;0.00;0.00;;;;;;;;;;4179829;28;20481;-36
2022/05/28 04:03:54;;;;;;;0.00;0.00;;;;;;;;;;4179351;28;20083;-39
2022/05/28 04:05:55;;;;;;;0.00;0.00;;;;;;;;;;4179939;28;20106;-38
2022/05/28 04:07:56;;;;;;;0.00;0.00;;;;;;;;;;4179411;28;20477;-40
2022/05/28 04:09:57;;;;;;;0.00;0.00;;;;;;;;;;4179132;28;20083;-39
2022/05/28 04:11:58;;;;;;;0.00;0.00;;;;;;;;;;4179644;28;20436;-42
2022/05/28 04:13:59;;;;;;;0.00;0.00;;;;;;;;;;4177697;28;20158;-39
2022/05/28 04:16:01;;;;;;;0.10;0.10;;;;;;;;;;4179781;28;20106;-41
2022/05/28 04:18:02;;;;;;;0.10;0.10;;;;;;;;;;4179631;28;20053;-41
2022/05/28 04:20:04;;;;;;;0.00;0.00;;;;;;;;;;4179225;28;20409;-41
2022/05/28 04:22:05;;;;;;;0.00;0.00;;;;;;;;;;4179734;28;20102;-39
2022/05/28 04:24:06;;;;;;;0.00;0.00;;;;;;;;;;4179243;28;20053;-40
2022/05/28 04:26:07;;;;;;;0.43;0.10;;;;;;;;;;4179266;28;20059;-38
2022/05/28 04:28:09;;;;;;;0.00;0.00;;;;;;;;;;4179468;28;20448;-41
2022/05/28 04:30:11;;;;;;;0.00;0.00;;;;;;;;;;4179024;28;20094;-40
2022/05/28 04:32:12;;;;;;;0.00;0.00;;;;;;;;;;4179648;28;20417;-39
2022/05/28 04:34:13;;;;;;;0.00;0.00;;;;;;;;;;4179277;28;20408;-39
2022/05/28 04:36:14;;;;;;;0.00;0.00;;;;;;;;;;4179642;28;20090;-41
2022/05/28 04:38:15;;;;;;;0.00;0.00;;;;;;;;;;4179619;28;20081;-39
2022/05/28 04:40:16;;;;;;;0.00;0.00;;;;;;;;;;4179741;28;20446;-40
2022/05/28 04:42:17;;;;;;;0.00;0.00;;;;;;;;;;4182961;28;20103;-40
2022/05/28 04:44:18;;;;;;;0.00;0.00;;;;;;;;;;4180828;28;20480;-41
2022/05/28 04:46:20;;;;;;;0.00;0.00;;;;;;;;;;4182662;28;20049;-39
2022/05/28 04:48:21;;;;;;;0.00;0.00;;;;;;;;;;4182598;28;20098;-41
2022/05/28 04:50:22;;;;;;;0.00;0.00;;;;;;;;;;4182327;28;20057;-41
2022/05/28 04:52:23;;;;;;;0.10;0.10;;;;;;;;;;4182477;28;20045;-41
2022/05/28 04:54:24;;;;;;;0.00;0.00;;;;;;;;;;4182611;28;20386;-41
2022/05/28 04:56:25;;;;;;;0.00;0.00;;;;;;;;;;4182646;28;20472;-39
2022/05/28 04:58:29;;;;;;;0.00;0.00;;;;;;;;;;4182491;28;20411;-39
2022/05/28 05:00:30;;;;;;;0.00;0.00;;;;;;;;;;4180606;28;20484;-39
2022/05/28 05:02:31;;;;;;;0.10;0.10;;;;;;;;;;4182093;28;20080;-39
2022/05/28 05:04:32;;;;;;;0.00;0.00;;;;;;;;;;4182382;28;20099;-40
2022/05/28 05:06:33;;;;;;;0.00;0.00;;;;;;;;;;4182653;28;20136;-38
2022/05/28 05:08:34;;;;;;;0.05;0.05;;;;;;;;;;4182402;28;20076;-36
2022/05/28 05:10:34;;;;;;;0.00;0.00;;;;;;;;;;4182079;28;20053;-36
2022/05/28 05:12:36;;;;;;;0.00;0.00;;;;;;;;;;4182103;28;20047;-40
2022/05/28 05:14:37;;;;;;;0.38;0.00;;;;;;;;;;4181954;28;20041;-40
2022/05/28 05:16:38;;;;;;;0.00;0.00;;;;;;;;;;4182076;28;20056;-39
2022/05/28 05:18:39;;;;;;;0.00;0.00;;;;;;;;;;4182015;28;20051;-38
2022/05/28 05:20:40;;;;;;;0.00;0.00;;;;;;;;;;4166632;28;20095;-38
2022/05/28 05:22:41;;;;;;;0.10;0.05;;;;;;;;;;4163851;28;20444;-38
2022/05/28 05:24:42;;;;;;;0.10;0.10;;;;;;;;;;4163519;28;20110;-40
2022/05/28 05:26:43;;;;;;;0.00;0.00;;;;;;;;;;4163398;28;20115;-38
2022/05/28 05:28:44;;;;;;;0.00;0.00;;;;;;;;;;4163086;28;20542;-38
2022/05/28 05:30:45;;;;;;;0.00;0.00;;;;;;;;;;4163590;28;20053;-41
2022/05/28 05:32:46;;;;;;;0.05;0.05;;;;;;;;;;4163855;28;20454;-41
2022/05/28 05:34:47;;;;;;;0.10;0.00;;;;;;;;;;4179729;28;20480;-40
2022/05/28 05:36:48;;;;;;;0.00;0.00;;;;;;;;;;4179632;28;20056;-39
2022/05/28 05:38:49;;;;;;;0.00;0.00;;;;;;;;;;4179511;28;20048;-39
2022/05/28 05:40:51;;;;;;;0.00;0.00;;;;;;;;;;4179825;28;20076;-40
2022/05/28 05:42:52;;;;;;;0.03;0.03;;;;;;;;;;4179618;28;20115;-39
2022/05/28 05:44:55;;;;;;;0.00;0.00;;;;;;;;;;4178893;28;20110;-40
2022/05/28 05:46:56;;;;;;;0.00;0.00;;;;;;;;;;4179546;28;20059;-39
2022/05/28 05:48:57;;;;;;;0.00;0.00;;;;;;;;;;4179766;28;20048;-41
2022/05/28 05:51:05;;;;;;;0.10;0.03;;;;;;;;;;4179558;28;20111;-39
2022/05/28 05:53:08;;;;;;;0.10;0.00;;;;;;;;;;4178855;28;20049;-40
2022/05/28 05:55:09;;;;;;;0.00;0.00;;;;;;;;;;4178971;28;20060;-38
2022/05/28 05:57:10;;;;;;;0.10;0.10;;;;;;;;;;4179527;28;20053;-38
2022/05/28 05:59:12;;;;;;;0.10;0.00;;;;;;;;;;4178998;28;20447;-39
2022/05/28 06:01:13;;;;;;;0.05;0.05;;;;;;;;;;4179500;28;20070;-38
2022/05/28 06:03:17;;;;;;;2.20;0.10;;;;;;;;;;4179159;28;20219;-40
2022/05/28 06:05:18;;;;;;;0.10;0.10;;;;;;;;;;4179176;28;20114;-38
2022/05/28 06:07:19;;;;;;;0.00;0.00;;;;;;;;;;4177773;28;20123;-39
2022/05/28 06:09:20;;;;;;;0.00;0.00;;;;;;;;;;4197973;28;20056;-39
2022/05/28 06:11:21;;;;;;;0.00;0.00;;;;;;;;;;4197790;28;20093;-37
2022/05/28 06:13:22;;;;;;;0.00;0.00;;;;;;;;;;4230183;28;20134;-40
2022/05/28 06:15:23;;;;;;;0.00;0.00;;;;;;;;;;4197592;28;20094;-38
2022/05/28 06:17:25;;;;;;;0.00;0.00;;;;;;;;;;4198164;28;20438;-38
2022/05/28 06:19:26;;;;;;;0.00;0.00;;;;;;;;;;4197600;28;20056;-40
2022/05/28 06:21:27;;;;;;;0.00;0.00;;;;;;;;;;4197688;28;20059;-38
2022/05/28 06:23:28;;;;;;;0.13;0.00;;;;;;;;;;4197733;28;20098;-36
2022/05/28 06:25:29;;;;;;;0.00;0.00;;;;;;;;;;4197376;28;20480;-37
2022/05/28 06:27:33;;;;;;;0.00;0.00;;;;;;;;;;4197630;28;20106;-37
2022/05/28 06:29:34;;;;;;;0.20;0.03;;;;;;;;;;4196932;28;20099;-37
2022/05/28 06:31:35;;;;;;;0.00;0.00;;;;;;;;;;4197642;28;20143;-39
2022/05/28 06:33:37;;;;;;;0.13;0.00;;;;;;;;;;4197444;28;20044;-41
2022/05/28 06:35:38;;;;;;;0.52;0.08;;;;;;;;;;4197168;28;20044;-40
2022/05/28 06:37:40;;;;;;;0.00;0.00;;;;;;;;;;4197543;28;20048;-41
2022/05/28 06:39:41;;;;;;;0.15;0.00;;;;;;;;;;4185071;28;20101;-41
2022/05/28 06:41:42;;;;;;;0.00;0.00;;;;;;;;;;4180952;28;20114;-41
2022/05/28 06:43:46;;;;;;;0.00;0.00;;;;;;;;;;4178854;28;20048;-41
2022/05/28 06:45:48;;;;;;;0.00;0.00;;;;;;;;;;4179351;28;20055;-39
2022/05/28 06:47:49;;;;;;;0.00;0.00;;;;;;;;;;4180613;28;20088;-39
2022/05/28 06:52:09;;;;;;;0.20;0.10;;;;;;;;;;4180510;28;20543;-39
2022/05/28 06:54:10;;;;;;;0.35;0.03;;;;;;;;;;4180308;28;20080;-39
2022/05/28 06:56:12;;;;;;;0.10;0.00;;;;;;;;;;4180496;28;20557;-39
2022/05/28 06:58:13;;;;;;;0.00;0.00;;;;;;;;;;4180505;28;20061;-40
2022/05/28 07:00:14;;;;;;;0.00;0.00;;;;;;;;;;4178571;28;20045;-39
2022/05/28 07:02:15;;;;;;;0.30;0.00;;;;;;;;;;4180384;28;20443;-39
2022/05/28 07:04:16;;;;;;;0.00;0.00;;;;;;;;;;4180040;28;20055;-40
2022/05/28 07:06:16;;;;;;;0.00;0.00;;;;;;;;;;4180670;28;20110;-38
2022/05/28 07:08:17;;;;;;;0.00;0.00;;;;;;;;;;4180385;28;20539;-38
2022/05/28 07:10:18;;;;;;;0.43;0.00;;;;;;;;;;4180454;28;20071;-41
2022/05/28 07:12:19;;;;;;;0.00;0.00;;;;;;;;;;4180535;28;20155;-34
2022/05/28 07:14:20;;;;;;;0.00;0.00;;;;;;;;;;4179753;28;20088;-40
2022/05/28 07:16:21;;;;;;;0.00;0.00;;;;;;;;;;4180452;28;20053;-35
2022/05/28 07:18:22;;;;;;;0.38;0.10;;;;;;;;;;4180167;28;20088;-39
2022/05/28 07:20:23;;;;;;;0.00;0.00;;;;;;;;;;4180246;28;20110;-40
2022/05/28 07:22:24;;;;;;;0.10;0.00;;;;;;;;;;4180059;28;20048;-38
2022/05/28 07:24:25;;;;;;;0.00;0.00;;;;;;;;;;4180500;28;20045;-40
2022/05/28 07:26:26;;;;;;;0.05;0.05;;;;;;;;;;4180237;28;20044;-38
2022/05/28 07:28:28;;;;;;;0.08;0.08;;;;;;;;;;4180030;28;20386;-39
2022/05/28 07:30:29;;;;;;;0.00;0.00;;;;;;;;;;4179502;28;20045;-40
2022/05/28 07:32:30;;;;;;;0.00;0.00;;;;;;;;;;4178778;28;20567;-39
2022/05/28 07:34:31;;;;;;;0.10;0.10;;;;;;;;;;4180032;28;20094;-39
2022/05/28 07:36:35;;;;;;;0.00;0.00;;;;;;;;;;4180067;28;20064;-39
2022/05/28 07:38:37;;;;;;;0.10;0.00;;;;;;;;;;4178454;28;20451;-40
2022/05/28 07:40:38;;;;;;;0.10;0.10;;;;;;;;;;4179823;28;20114;-39
2022/05/28 07:42:39;;;;;;;0.00;0.00;;;;;;;;;;4179884;28;20040;-39
2022/05/28 07:44:40;;;;;;;0.05;0.05;;;;;;;;;;4179653;28;20045;-37
2022/05/28 07:46:41;;;;;;;0.00;0.00;;;;;;;;;;4179870;28;20191;-41
2022/05/28 07:48:42;;;;;;;0.08;0.08;;;;;;;;;;4179830;28;20049;-39
2022/05/28 07:50:44;;;;;;;0.00;0.00;;;;;;;;;;4180082;28;20626;-40
2022/05/28 07:52:47;;;;;;;0.00;0.00;;;;;;;;;;4179665;28;20104;-41
2022/05/28 07:54:48;;;;;;;0.40;0.00;;;;;;;;;;4179618;28;20049;-38
2022/05/28 07:56:49;;;;;;;0.10;0.00;;;;;;;;;;4179729;28;20056;-41
2022/05/28 07:58:54;;;;;;;0.00;0.00;;;;;;;;;;4179287;28;20053;-38
2022/05/28 08:00:55;;;;;;;0.00;0.00;;;;;;;;;;4179480;28;20053;-38
2022/05/28 08:02:56;;;;;;;0.00;0.00;;;;;;;;;;4179484;28;20060;-37
2022/05/28 08:04:57;;;;;;;0.00;0.00;;;;;;;;;;4179626;28;20056;-39
2022/05/28 08:06:58;;;;;;;0.15;0.10;;;;;;;;;;4179512;28;20064;-41
2022/05/28 08:09:00;;;;;;;0.00;0.00;;;;;;;;;;4179419;28;20103;-38
2022/05/28 08:11:01;;;;;;;0.00;0.00;;;;;;;;;;4179741;28;20095;-41
2022/05/28 08:13:06;;;;;;;0.10;0.10;;;;;;;;;;4177707;28;20049;-40
2022/05/28 08:15:07;;;;;;;0.00;0.00;;;;;;;;;;4175041;28;20049;-40
2022/05/28 08:17:08;;;;;;;0.17;0.00;;;;;;;;;;4176073;28;20110;-41
2022/05/28 08:19:09;;;;;;;0.00;0.00;;;;;;;;;;4175882;28;20053;-41
2022/05/28 08:23:30;;;;;;;0.00;0.00;;;;;;;;;;4176367;28;20442;-40
2022/05/28 08:25:30;;;;;;;0.00;0.00;;;;;;;;;;4175894;28;20079;-40
2022/05/28 08:27:31;;;;;;;0.00;0.00;;;;;;;;;;4175592;28;20512;-39
2022/05/28 08:29:32;;;;;;;0.10;0.10;;;;;;;;;;4175386;28;20057;-40
2022/05/28 08:31:33;;;;;;;0.00;0.00;;;;;;;;;;4175928;28;20048;-41
2022/05/28 08:33:35;;;;;;;0.10;0.10;;;;;;;;;;4175820;28;20048;-39
2022/05/28 08:35:37;;;;;;;0.10;0.10;;;;;;;;;;4175333;28;20045;-40
2022/05/28 08:37:38;;;;;;;0.00;0.00;;;;;;;;;;4175672;28;20060;-39
2022/05/28 08:39:39;;;;;;;0.00;0.00;;;;;;;;;;4175527;28;20451;-40
2022/05/28 08:41:44;;;;;;;0.00;0.00;;;;;;;;;;4175645;28;20057;-39
2022/05/28 08:43:47;;;;;;;0.00;0.00;;;;;;;;;;4174180;28;20122;-41
2022/05/28 08:45:49;;;;;;;0.10;0.10;;;;;;;;;;4174600;28;20060;-41
2022/05/28 08:47:51;;;;;;;0.05;0.00;;;;;;;;;;4174147;28;20496;-39
2022/05/28 08:49:52;;;;;;;0.00;0.00;;;;;;;;;;4175325;28;20060;-39
2022/05/28 08:52:03;;;;;;;0.10;0.10;;;;;;;;;;4174382;28;20053;-39
2022/05/28 08:54:07;;;;;;;0.17;0.10;;;;;;;;;;4175789;28;20083;-41
2022/05/28 08:56:08;;;;;;;0.40;0.10;;;;;;;;;;4175515;28;20056;-40
2022/05/28 08:58:12;;;;;;;0.10;0.10;;;;;;;;;;4175646;28;20060;-40
2022/05/28 09:00:15;;;;;;;0.00;0.00;;;;;;;;;;4175215;28;20087;-41
2022/05/28 09:02:19;;;;;;;0.10;0.10;;;;;;;;;;4175464;28;20505;-37
2022/05/28 09:04:32;;;;;;;0.00;0.00;;;;;;;;;;4173744;28;20786;-39
2022/05/28 09:06:36;;;;;;;0.10;0.10;;;;;;;;;;4175753;28;20437;-38
2022/05/28 09:08:44;;;;;;;0.05;0.05;;;;;;;;;;4175668;28;20122;-41
2022/05/28 09:10:47;;;;;;;0.00;0.00;;;;;;;;;;4175524;28;20393;-41
2022/05/28 09:12:54;;;;;;;0.00;0.00;;;;;;;;;;4175426;28;20075;-38
2022/05/28 09:14:56;;;;;;;0.00;0.00;;;;;;;;;;4175134;28;20539;-40
2022/05/28 09:17:00;;;;;;;0.10;0.10;;;;;;;;;;4175420;28;20053;-39
2022/05/28 09:19:05;;;;;;;0.00;0.00;;;;;;;;;;4175251;28;20087;-39
2022/05/28 09:21:07;;;;;;;0.00;0.00;;;;;;;;;;4175377;28;20049;-39
2022/05/28 09:23:08;;;;;;;0.03;0.00;;;;;;;;;;4175349;28;20386;-38
2022/05/28 09:25:10;;;;;;;0.00;0.00;;;;;;;;;;4175355;28;20386;-33
2022/05/28 09:27:31;;;;;;;0.30;0.00;;;;;;;;;;4157669;28;20517;-40
2022/05/28 09:29:51;;;;;;;0.00;0.00;;;;;;;;;;4177759;28;20053;-37
2022/05/28 09:31:58;;;;;;;0.10;0.10;;;;;;;;;;4178217;28;20075;-39
2022/05/28 09:34:14;;;;;;;0.10;0.10;;;;;;;;;;4177959;28;20041;-41
2022/05/28 09:36:32;;;;;;;0.10;0.10;;;;;;;;;;4178184;28;20060;-41
2022/05/28 09:38:40;;;;;;;0.10;0.08;;;;;;;;;;4178180;28;20121;-37
2022/05/28 09:40:49;;;;;;;0.10;0.10;;;;;;;;;;4178146;28;20500;-40
2022/05/28 09:43:09;;;;;;;0.00;0.00;;;;;;;;;;4178315;28;20052;-38
2022/05/28 09:45:35;;;;;;;0.00;0.00;;;;;;;;;;4177676;28;20619;-36
2022/05/28 09:47:49;;;;;;;0.00;0.00;;;;;;;;;;4176711;28;20542;-41
2022/05/28 09:49:54;;;;;;;0.15;0.00;;;;;;;;;;4178259;28;20048;-40
2022/05/28 09:52:18;;;;;;;0.10;0.03;;;;;;;;;;4178149;28;20399;-39
2022/05/28 09:54:21;;;;;;;0.10;0.05;;;;;;;;;;4177830;28;20044;-39
2022/05/28 09:56:36;;;;;;;0.00;0.00;;;;;;;;;;4177982;28;20049;-39
2022/05/28 09:58:38;;;;;;;0.10;0.10;;;;;;;;;;4177923;28;20052;-38
2022/05/28 10:00:39;;;;;;;0.00;0.00;;;;;;;;;;4177454;28;20106;-40
2022/05/28 10:02:43;;;;;;;0.10;0.10;;;;;;;;;;4177799;28;20057;-39
2022/05/28 10:04:52;;;;;;;0.00;0.00;;;;;;;;;;4177648;28;20136;-40
2022/05/28 10:06:53;;;;;;;0.00;0.00;;;;;;;;;;4177832;28;20492;-40
2022/05/28 10:08:54;;;;;;;0.00;0.00;;;;;;;;;;4177566;28;20230;-41
2022/05/28 10:10:56;;;;;;;0.10;0.10;;;;;;;;;;4177729;28;20045;-39
2022/05/28 10:13:24;;;;;;;0.00;0.00;;;;;;;;;;4177649;28;20518;-41
2022/05/28 10:15:30;;;;;;;0.00;0.00;;;;;;;;;;4176147;28;20385;-39
2022/05/28 10:17:31;;;;;;;0.10;0.10;;;;;;;;;;4177952;28;20053;-40
2022/05/28 10:19:40;;;;;;;0.10;0.10;;;;;;;;;;4177530;28;20397;-38
2022/05/28 10:21:47;;;;;;;0.10;0.10;;;;;;;;;;4177665;28;20057;-39
2022/05/28 10:23:57;;;;;;;0.30;0.30;;;;;;;;;;4177498;28;20057;-39
2022/05/28 10:25:58;;;;;;;0.00;0.00;;;;;;;;;;4177747;28;20057;-39
2022/05/28 10:27:59;;;;;;;0.50;0.10;;;;;;;;;;4177395;28;20451;-40
2022/05/28 10:30:08;;;;;;;0.20;0.10;;;;;;;;;;4177226;28;20053;-41
2022/05/28 10:32:28;;;;;;;0.00;0.00;;;;;;;;;;4177765;28;20044;-41
2022/05/28 10:34:29;;;;;;;0.10;0.10;;;;;;;;;;4177630;28;20403;-40
2022/05/28 10:36:31;;;;;;;0.00;0.00;;;;;;;;;;4162318;28;20049;-40
2022/05/28 10:38:32;;;;;;;0.00;0.00;;;;;;;;;;4158881;28;20057;-36
2022/05/28 10:40:44;;;;;;;0.00;0.00;;;;;;;;;;4158719;28;20129;-41
2022/05/28 10:42:46;;;;;;;0.05;0.05;;;;;;;;;;4158791;28;20489;-36
2022/05/28 10:44:47;;;;;;;0.10;0.10;;;;;;;;;;4158478;28;20179;-38
2022/05/28 10:47:07;;;;;;;0.10;0.10;;;;;;;;;;4158723;28;20091;-41
2022/05/28 10:49:23;;;;;;;0.00;0.00;;;;;;;;;;4158506;28;20108;-37
2022/05/28 10:51:43;;;;;;;0.10;0.10;;;;;;;;;;4158845;28;20060;-37
2022/05/28 10:53:50;;;;;;;0.10;0.10;;;;;;;;;;4158795;28;20045;-38
2022/05/28 10:56:00;;;;;;;0.65;0.10;;;;;;;;;;4158795;28;20060;-40
2022/05/28 10:58:05;;;;;;;0.05;0.05;;;;;;;;;;4158738;28;20115;-37
2022/05/28 11:00:08;;;;;;;0.10;0.10;;;;;;;;;;4164099;28;20064;-41
2022/05/28 11:02:27;;;;;;;0.05;0.05;;;;;;;;;;4175048;28;20590;-41
2022/05/28 11:04:32;;;;;;;0.00;0.00;;;;;;;;;;4175186;28;20057;-41
2022/05/28 11:06:52;;;;;;;0.10;0.10;;;;;;;;;;4174906;28;20057;-40
2022/05/28 11:09:05;;;;;;;0.10;0.10;;;;;;;;;;4174848;28;20130;-40
2022/05/28 11:11:17;;;;;;;0.13;0.10;;;;;;;;;;4189401;28;20463;-40
2022/05/28 11:13:22;;;;;;;0.00;0.00;;;;;;;;;;4174932;28;20053;-40
2022/05/28 11:15:26;;;;;;;0.00;0.00;;;;;;;;;;4174546;28;20504;-40
2022/05/28 11:17:50;;;;;;;0.08;0.08;;;;;;;;;;4174969;28;20485;-41
2022/05/28 11:20:11;;;;;;;0.05;0.05;;;;;;;;;;4174594;28;20536;-41
2022/05/28 11:22:26;;;;;;;0.10;0.10;;;;;;;;;;4174935;28;20055;-40
2022/05/28 11:24:45;;;;;;;0.03;0.03;;;;;;;;;;4184788;28;20048;-41
2022/05/28 11:26:55;;;;;;;0.10;0.10;;;;;;;;;;4192853;28;20078;-41
2022/05/28 11:29:26;;;;;;;0.10;0.10;;;;;;;;;;4192875;28;20056;-41
2022/05/28 11:31:33;;;;;;;0.10;0.10;;;;;;;;;;4180582;28;20044;-41
2022/05/28 11:33:36;;;;;;;0.00;0.00;;;;;;;;;;4184293;28;20048;-39
2022/05/28 11:35:40;;;;;;;0.10;0.10;;;;;;;;;;4176430;28;20049;-41
2022/05/28 11:37:44;;;;;;;0.10;0.10;;;;;;;;;;4176348;28;20106;-41
2022/05/28 11:39:55;;;;;;;0.10;0.10;;;;;;;;;;4175974;28;20106;-38
2022/05/28 11:42:02;;;;;;;0.00;0.00;;;;;;;;;;4176546;28;20323;-39
2022/05/28 11:44:10;;;;;;;0.00;0.00;;;;;;;;;;4175727;28;20216;-41
2022/05/28 11:46:30;;;;;;;0.05;0.05;;;;;;;;;;4176558;28;20057;-38
2022/05/28 11:53:56;;;;;;;0.13;0.13;;;;;;;;;;4175895;28;20546;-40
2022/05/28 11:56:00;;;;;;;0.13;0.10;;;;;;;;;;4163530;28;20056;-39
2022/05/28 11:58:05;;;;;;;0.15;0.10;;;;;;;;;;4175791;28;20381;-39
2022/05/28 12:00:07;;;;;;;0.00;0.00;;;;;;;;;;4175309;28;20497;-41
2022/05/28 12:02:14;;;;;;;0.10;0.10;;;;;;;;;;4175904;28;20057;-39
2022/05/28 12:04:15;;;;;;;0.00;0.00;;;;;;;;;;4175597;28;20057;-40
2022/05/28 12:06:24;;;;;;;0.00;0.00;;;;;;;;;;4175864;28;20060;-41
2022/05/28 12:08:30;;;;;;;0.00;0.00;;;;;;;;;;4174736;28;20052;-40
2022/05/28 12:10:38;;;;;;;0.00;0.00;;;;;;;;;;4175971;28;20098;-41
2022/05/28 12:12:52;;;;;;;0.05;0.05;;;;;;;;;;4176006;28;20049;-38
2022/05/28 12:15:08;;;;;;;0.40;0.10;;;;;;;;;;4175783;28;20103;-41
2022/05/28 12:17:22;;;;;;;0.08;0.08;;;;;;;;;;4175971;28;20053;-39
2022/05/28 12:19:24;;;;;;;0.00;0.00;;;;;;;;;;4175863;28;20056;-40
2022/05/28 12:21:27;;;;;;;0.00;0.00;;;;;;;;;;4175782;28;20060;-41
2022/05/28 12:23:30;;;;;;;0.00;0.00;;;;;;;;;;4175869;28;20048;-41
2022/05/28 12:25:38;;;;;;;0.20;0.00;;;;;;;;;;4175967;28;20117;-38
2022/05/28 12:27:54;;;;;;;0.10;0.00;;;;;;;;;;4175581;28;20053;-40
2022/05/28 12:30:01;;;;;;;0.03;0.03;;;;;;;;;;4175469;28;20135;-39
2022/05/28 12:32:17;;;;;;;0.08;0.08;;;;;;;;;;4175616;28;20053;-40
2022/05/28 12:34:24;;;;;;;0.30;0.10;;;;;;;;;;4174047;28;20086;-39